createdAt,value
2019-03-27T00:22:59.804Z,10.63
2019-03-27T00:53:03.808Z,10.95
2019-03-27T01:23:07.654Z,10.38
2019-03-27T01:53:11.419Z,10.85
2019-03-27T02:23:15.416Z,14.33
2019-03-27T02:53:19.184Z,16.70
2019-03-27T03:23:22.972Z,14.95
2019-03-27T03:53:27.547Z,20.68
2019-03-27T04:23:31.452Z,15.85
2019-03-27T04:53:35.441Z,17.65
2019-03-27T05:23:39.128Z,14.73
2019-03-27T05:53:42.937Z,17.40
2019-03-27T06:23:46.658Z,17.52
2019-03-27T06:53:50.647Z,7.53
2019-03-27T07:23:54.362Z,7.40
2019-03-27T07:53:58.387Z,6.95
2019-03-27T08:24:02.190Z,5.08
2019-03-27T08:54:05.904Z,6.83
2019-03-27T09:24:10.461Z,12.55
2019-03-27T09:54:14.340Z,8.20
2019-03-27T10:24:18.147Z,6.85
2019-03-27T10:54:21.773Z,5.75
2019-03-27T11:24:25.627Z,5.45
2019-03-27T11:54:29.579Z,5.00
2019-03-27T12:24:33.276Z,6.90
2019-03-27T12:54:37.184Z,5.80
2019-03-27T13:24:40.963Z,8.23
2019-03-27T13:54:44.879Z,5.90
2019-03-27T14:24:48.761Z,7.45
2019-03-27T14:54:52.552Z,8.83
2019-03-27T15:24:56.371Z,6.85
2019-03-27T15:55:00.429Z,10.20
2019-03-27T16:25:05.924Z,10.75
2019-03-27T16:55:10.112Z,13.10
2019-03-27T17:25:14.929Z,27.52
2019-03-27T17:55:18.681Z,21.85
2019-03-27T18:25:22.584Z,25.23
2019-03-27T18:55:27.226Z,19.73
2019-03-27T19:25:31.119Z,22.90
2019-03-27T19:55:34.903Z,22.10
2019-03-27T20:25:38.761Z,19.32
2019-03-27T20:55:42.591Z,26.12
2019-03-27T21:25:46.474Z,17.60
2019-03-27T21:55:50.280Z,17.70
2019-03-27T22:25:54.704Z,19.80
2019-03-27T22:55:58.526Z,21.05
2019-03-27T23:26:03.497Z,21.20
2019-03-27T23:56:16.597Z,25.57
